Time;durP1;ratioP1;P1;durP2;ratioP2;P2;SDS_P1;SDS_P2;PMS_P1;PMS_P2;Temp;Humidity;BMP_temperature;BMP_pressure;BME280_temperature;BME280_humidity;BME280_pressure;Samples;Min_cycle;Max_cycle;Signal;HPM_P1;HPM_P2
2021/07/26 00:00:21;;;;;;;7.37;6.77;;;18.30;99.90;;;;;;5082683;28;20605;-67
2021/07/26 00:02:48;;;;;;;7.40;6.90;;;18.20;99.90;;;;;;5077538;28;20859;-67
2021/07/26 00:05:16;;;;;;;6.97;6.53;;;18.20;99.90;;;;;;5082908;28;20474;-66
2021/07/26 00:07:43;;;;;;;7.10;6.57;;;18.20;99.90;;;;;;5082877;28;20442;-67
2021/07/26 00:10:10;;;;;;;8.73;8.07;;;18.20;99.90;;;;;;5082629;28;20438;-67
2021/07/26 00:12:37;;;;;;;7.13;6.63;;;18.20;99.90;;;;;;5082394;28;20453;-67
2021/07/26 00:15:06;;;;;;;7.50;6.80;;;18.20;99.90;;;;;;5082174;28;20478;-67
2021/07/26 00:17:33;;;;;;;7.30;6.67;;;18.20;99.90;;;;;;5081846;28;20924;-67
2021/07/26 00:20:00;;;;;;;7.97;7.37;;;18.20;99.90;;;;;;5082480;28;20488;-67
2021/07/26 00:22:28;;;;;;;7.60;7.00;;;18.20;99.90;;;;;;5081818;28;20453;-67
2021/07/26 00:24:54;;;;;;;7.20;6.70;;;18.20;99.90;;;;;;5082352;28;20480;-67
2021/07/26 00:27:24;;;;;;;6.53;6.23;;;18.20;99.90;;;;;;5082084;28;20446;-67
2021/07/26 00:29:51;;;;;;;6.97;6.47;;;18.20;99.90;;;;;;5081728;28;21057;-66
2021/07/26 00:32:21;;;;;;;7.60;7.03;;;18.20;99.90;;;;;;5081963;28;21125;-66
2021/07/26 00:34:48;;;;;;;6.97;6.60;;;18.20;99.90;;;;;;5082627;28;20461;-66
2021/07/26 00:37:15;;;;;;;8.03;7.23;;;18.20;99.90;;;;;;5082090;28;20447;-67
2021/07/26 00:39:43;;;;;;;13.50;7.73;;;18.20;99.90;;;;;;5082160;28;20477;-67
2021/07/26 00:42:09;;;;;;;7.00;6.63;;;18.20;99.90;;;;;;5081315;28;20451;-67
2021/07/26 00:44:36;;;;;;;8.00;7.43;;;18.20;99.90;;;;;;5082108;28;20450;-67
2021/07/26 00:47:04;;;;;;;7.40;6.90;;;18.20;99.90;;;;;;5081712;28;20489;-66
2021/07/26 00:49:31;;;;;;;8.13;7.63;;;18.10;99.90;;;;;;5074076;28;20470;-66
2021/07/26 00:51:59;;;;;;;7.43;6.80;;;18.10;99.90;;;;;;5081344;28;20470;-67
2021/07/26 00:54:28;;;;;;;7.73;7.43;;;18.10;99.90;;;;;;5081634;28;20446;-66
2021/07/26 00:56:58;;;;;;;8.93;8.33;;;18.10;99.90;;;;;;5081697;28;20478;-67
2021/07/26 00:59:25;;;;;;;8.60;8.10;;;18.10;99.90;;;;;;5081627;28;20482;-67
2021/07/26 01:01:52;;;;;;;8.37;7.67;;;18.00;99.90;;;;;;5081319;28;20454;-67
2021/07/26 01:04:19;;;;;;;7.53;7.23;;;18.00;99.90;;;;;;5081642;28;20737;-67
2021/07/26 01:06:46;;;;;;;8.87;8.20;;;18.00;99.90;;;;;;5080809;28;20473;-66
2021/07/26 01:09:14;;;;;;;6.90;6.60;;;18.00;99.90;;;;;;5081354;28;20450;-67
2021/07/26 01:11:41;;;;;;;7.10;6.70;;;18.00;99.90;;;;;;5081222;28;20442;-67
2021/07/26 01:14:09;;;;;;;8.03;7.60;;;17.90;99.90;;;;;;5081310;28;20449;-67
2021/07/26 01:16:35;;;;;;;7.73;7.40;;;18.00;99.90;;;;;;5081306;28;20845;-67
2021/07/26 01:19:02;;;;;;;8.67;8.27;;;17.90;99.90;;;;;;5080987;28;20482;-67
2021/07/26 01:21:32;;;;;;;7.00;6.70;;;17.90;99.90;;;;;;5080958;28;20443;-67
2021/07/26 01:24:00;;;;;;;8.27;7.70;;;17.90;99.90;;;;;;5081614;28;20451;-67
2021/07/26 01:26:28;;;;;;;8.53;8.03;;;17.90;99.90;;;;;;5080885;28;20462;-67
2021/07/26 01:28:57;;;;;;;8.37;7.77;;;17.90;99.90;;;;;;5077198;28;21087;-66
2021/07/26 01:31:24;;;;;;;7.93;7.50;;;17.80;99.90;;;;;;5080306;28;20442;-67
2021/07/26 01:33:52;;;;;;;8.40;7.90;;;17.90;99.90;;;;;;5081201;28;21260;-66
2021/07/26 01:36:19;;;;;;;8.53;7.93;;;17.80;99.90;;;;;;5080724;28;20470;-67
2021/07/26 01:38:51;;;;;;;8.20;7.70;;;17.80;99.90;;;;;;5080820;28;20463;-67
2021/07/26 01:41:20;;;;;;;7.60;7.20;;;17.80;99.90;;;;;;5080601;28;20455;-67
2021/07/26 01:44:03;;;;;;;8.57;7.87;;;17.80;99.90;;;;;;5080835;28;20534;-67
2021/07/26 01:46:47;;;;;;;7.83;7.40;;;17.80;99.90;;;;;;5080251;28;20546;-67
2021/07/26 01:49:28;;;;;;;7.97;7.47;;;17.80;99.90;;;;;;5080729;28;21206;-67
2021/07/26 01:51:55;;;;;;;7.93;7.47;;;17.80;99.90;;;;;;5076256;28;20455;-67
2021/07/26 01:54:23;;;;;;;8.63;7.93;;;17.70;99.90;;;;;;5080737;28;20458;-67
2021/07/26 01:56:50;;;;;;;8.10;7.50;;;17.80;99.90;;;;;;5080680;28;21269;-67
2021/07/26 01:59:17;;;;;;;8.00;7.40;;;17.70;99.90;;;;;;5079971;28;20481;-67
2021/07/26 02:01:44;;;;;;;8.60;8.00;;;17.70;99.90;;;;;;5080387;28;20446;-67
2021/07/26 02:04:10;;;;;;;7.63;7.07;;;17.70;99.90;;;;;;5080297;28;21063;-67
2021/07/26 02:06:37;;;;;;;7.10;6.60;;;17.70;99.90;;;;;;5080490;28;20474;-67
2021/07/26 02:09:04;;;;;;;7.73;7.33;;;17.70;99.90;;;;;;5080042;28;20438;-67
2021/07/26 02:11:32;;;;;;;8.07;7.57;;;17.60;99.90;;;;;;5072110;28;20508;-67
2021/07/26 02:13:58;;;;;;;8.13;7.63;;;17.70;99.90;;;;;;5079999;28;20462;-67
2021/07/26 02:16:25;;;;;;;6.87;6.47;;;17.70;99.90;;;;;;5079775;28;20466;-67
2021/07/26 02:18:52;;;;;;;7.93;7.40;;;17.60;99.90;;;;;;5074486;28;20450;-67
2021/07/26 02:21:19;;;;;;;7.30;6.90;;;17.60;99.90;;;;;;5079903;28;20438;-67
2021/07/26 02:23:45;;;;;;;8.00;7.30;;;17.60;99.90;;;;;;5079982;28;20441;-67
2021/07/26 02:26:12;;;;;;;8.27;7.53;;;17.60;99.90;;;;;;5079682;28;20470;-67
2021/07/26 02:28:40;;;;;;;8.50;7.67;;;17.60;99.90;;;;;;5079886;28;20450;-67
2021/07/26 02:31:07;;;;;;;7.40;7.00;;;17.60;99.90;;;;;;5079484;28;20504;-67
2021/07/26 02:33:34;;;;;;;7.27;6.70;;;17.60;99.90;;;;;;5079932;28;21243;-67
2021/07/26 02:36:00;;;;;;;6.53;6.13;;;17.60;99.90;;;;;;5079849;28;20466;-67
2021/07/26 02:38:27;;;;;;;7.57;7.10;;;17.60;99.90;;;;;;5079698;28;20443;-67
2021/07/26 02:40:54;;;;;;;6.70;6.23;;;17.60;99.90;;;;;;5079630;28;20478;-67
2021/07/26 02:43:21;;;;;;;6.97;6.47;;;17.70;99.90;;;;;;5079505;28;20450;-67
2021/07/26 02:45:49;;;;;;;7.13;6.73;;;17.70;99.90;;;;;;5080270;28;20473;-66
2021/07/26 02:48:15;;;;;;;7.10;6.60;;;17.70;99.90;;;;;;5079287;28;20958;-66
2021/07/26 02:50:42;;;;;;;7.43;6.93;;;17.80;99.90;;;;;;5079743;28;20438;-66
2021/07/26 02:53:09;;;;;;;6.70;6.30;;;17.70;99.90;;;;;;5079346;28;21250;-66
2021/07/26 02:55:36;;;;;;;8.17;6.87;;;17.80;99.90;;;;;;5079453;28;20470;-66
2021/07/26 02:58:03;;;;;;;7.13;6.70;;;17.80;99.90;;;;;;5079428;28;20450;-66
2021/07/26 03:00:29;;;;;;;6.97;6.13;;;17.80;99.90;;;;;;5079629;28;20478;-66
2021/07/26 03:02:58;;;;;;;7.20;6.70;;;17.80;99.90;;;;;;5079557;28;20447;-66
2021/07/26 03:05:27;;;;;;;7.50;7.00;;;17.80;99.90;;;;;;5079390;28;20469;-67
2021/07/26 03:07:53;;;;;;;7.37;6.70;;;17.90;99.90;;;;;;5079569;28;20453;-66
2021/07/26 03:10:20;;;;;;;6.83;6.23;;;17.90;99.90;;;;;;5079657;28;20454;-66
2021/07/26 03:12:47;;;;;;;7.60;7.10;;;17.90;99.90;;;;;;5079044;28;20453;-66
2021/07/26 03:15:13;;;;;;;7.30;6.77;;;17.90;99.90;;;;;;5079180;28;20465;-66
2021/07/26 03:17:40;;;;;;;6.87;6.37;;;17.90;99.90;;;;;;5078982;28;20446;-66
2021/07/26 03:20:09;;;;;;;7.47;6.87;;;17.90;99.90;;;;;;5079048;28;20927;-66
2021/07/26 03:22:58;;;;;;;8.63;6.80;;;17.90;99.90;;;;;;5079140;28;20450;-66
2021/07/26 03:25:26;;;;;;;7.57;7.10;;;17.90;99.90;;;;;;5079257;28;20474;-67
2021/07/26 03:27:52;;;;;;;7.73;7.13;;;18.00;99.90;;;;;;5079115;28;20454;-68
2021/07/26 03:30:20;;;;;;;8.07;7.57;;;18.00;99.90;;;;;;5083006;28;20454;-68
2021/07/26 03:32:47;;;;;;;9.03;8.33;;;18.00;99.90;;;;;;5083042;28;20473;-68
2021/07/26 03:35:17;;;;;;;7.93;7.43;;;18.00;99.90;;;;;;5082968;28;20531;-68
2021/07/26 03:37:43;;;;;;;8.43;7.90;;;18.00;99.90;;;;;;5083146;28;20453;-68
2021/07/26 03:40:11;;;;;;;8.47;7.97;;;18.10;99.90;;;;;;5083185;28;20478;-68
2021/07/26 03:42:39;;;;;;;8.90;8.40;;;18.00;99.90;;;;;;5082959;28;20446;-68
2021/07/26 03:45:08;;;;;;;8.80;7.93;;;18.10;99.90;;;;;;5082986;28;20481;-68
2021/07/26 03:47:35;;;;;;;8.23;7.73;;;18.10;99.90;;;;;;5082726;28;20453;-66
2021/07/26 03:50:02;;;;;;;8.40;7.90;;;18.10;99.90;;;;;;5082637;28;20447;-66
2021/07/26 03:52:30;;;;;;;8.37;7.87;;;18.10;99.90;;;;;;5082654;28;20446;-63
2021/07/26 03:54:57;;;;;;;7.70;7.30;;;18.10;99.90;;;;;;5082988;28;20453;-64
2021/07/26 03:57:24;;;;;;;7.97;7.47;;;18.10;99.90;;;;;;5082581;28;20442;-63
2021/07/26 03:59:51;;;;;;;9.47;8.77;;;18.20;99.90;;;;;;5082787;28;21001;-61
2021/07/26 04:02:18;;;;;;;8.70;8.00;;;18.30;99.90;;;;;;5082042;28;20533;-61
2021/07/26 04:04:46;;;;;;;8.50;8.00;;;18.50;99.90;;;;;;5082734;28;20450;-61
2021/07/26 04:07:19;;;;;;;7.90;7.40;;;18.60;99.90;;;;;;5082368;28;20451;-63
2021/07/26 04:09:51;;;;;;;8.40;7.80;;;18.70;99.90;;;;;;5082615;28;20450;-61
2021/07/26 04:12:22;;;;;;;9.13;8.63;;;18.80;99.90;;;;;;5073013;28;20458;-61
2021/07/26 04:14:49;;;;;;;9.77;8.87;;;18.90;99.90;;;;;;5082168;28;20484;-61
2021/07/26 04:17:16;;;;;;;9.73;8.87;;;19.00;99.90;;;;;;5082378;28;20937;-61
2021/07/26 04:19:42;;;;;;;9.53;9.00;;;19.10;99.90;;;;;;5083455;28;20446;-60
2021/07/26 04:22:09;;;;;;;9.77;9.27;;;19.10;99.90;;;;;;5082045;28;20454;-61
2021/07/26 04:24:36;;;;;;;9.57;8.97;;;19.10;99.90;;;;;;5082491;28;20453;-62
2021/07/26 04:27:04;;;;;;;10.37;9.77;;;19.20;99.90;;;;;;5081911;28;20484;-62
2021/07/26 04:29:31;;;;;;;11.37;10.13;;;19.30;99.90;;;;;;5081866;28;20951;-62
2021/07/26 04:31:58;;;;;;;10.80;10.10;;;19.40;99.90;;;;;;5082094;28;20449;-62
2021/07/26 04:34:24;;;;;;;11.30;10.70;;;19.40;99.90;;;;;;5081704;28;20453;-62
2021/07/26 04:36:51;;;;;;;12.60;11.90;;;19.50;99.90;;;;;;5081959;28;20466;-62
2021/07/26 04:39:18;;;;;;;11.93;11.10;;;19.60;99.90;;;;;;5081971;28;20447;-62
2021/07/26 04:41:44;;;;;;;11.20;10.60;;;19.80;99.90;;;;;;5080553;28;20484;-62
2021/07/26 04:44:12;;;;;;;12.00;11.40;;;20.00;99.90;;;;;;5080092;28;20454;-62
2021/07/26 04:46:39;;;;;;;12.53;11.83;;;20.00;99.90;;;;;;5079805;28;21306;-63
2021/07/26 04:49:06;;;;;;;13.63;12.80;;;20.20;99.90;;;;;;5079690;28;20977;-67
2021/07/26 04:51:32;;;;;;;13.60;12.60;;;20.20;99.90;;;;;;5080120;28;21039;-67
2021/07/26 04:53:59;;;;;;;12.77;12.17;;;20.20;99.90;;;;;;5079997;28;21005;-68
2021/07/26 04:56:26;;;;;;;13.30;12.50;;;20.20;99.90;;;;;;5080051;28;20462;-67
2021/07/26 04:58:52;;;;;;;12.70;11.80;;;20.20;99.90;;;;;;5081511;28;20447;-67
2021/07/26 05:01:20;;;;;;;13.40;12.63;;;20.20;99.90;;;;;;5081358;28;20997;-67
2021/07/26 05:03:47;;;;;;;13.23;12.33;;;20.20;99.90;;;;;;5081449;28;20457;-67
2021/07/26 05:06:14;;;;;;;14.17;13.57;;;20.20;99.90;;;;;;5081611;28;20904;-67
2021/07/26 05:08:40;;;;;;;15.13;14.03;;;20.20;99.90;;;;;;5081258;28;20937;-67
2021/07/26 05:11:07;;;;;;;14.10;13.30;;;20.20;99.90;;;;;;5081127;28;20447;-68
2021/07/26 05:13:34;;;;;;;14.20;13.60;;;20.30;99.90;;;;;;5081496;28;20532;-67
2021/07/26 05:16:00;;;;;;;14.80;14.03;;;20.40;99.90;;;;;;5081432;28;20795;-67
2021/07/26 05:18:28;;;;;;;15.23;14.43;;;20.40;99.90;;;;;;5081388;28;20901;-67
2021/07/26 05:20:55;;;;;;;14.90;14.10;;;20.40;99.90;;;;;;5081034;28;20490;-67
2021/07/26 05:23:22;;;;;;;15.20;14.50;;;20.40;99.90;;;;;;5081145;28;20450;-67
2021/07/26 05:25:49;;;;;;;16.47;15.43;;;20.40;99.90;;;;;;5080824;28;20776;-68
2021/07/26 05:28:15;;;;;;;15.60;14.70;;;20.50;99.90;;;;;;5081045;28;20759;-67
2021/07/26 05:30:42;;;;;;;15.60;14.50;;;20.60;99.90;;;;;;5081104;28;20453;-67
2021/07/26 05:33:09;;;;;;;15.27;14.57;;;20.60;99.90;;;;;;5080790;28;20442;-67
2021/07/26 05:35:37;;;;;;;16.00;15.20;;;20.70;99.90;;;;;;5081152;28;20473;-67
2021/07/26 05:38:04;;;;;;;16.10;15.27;;;20.80;99.90;;;;;;5080913;28;20497;-67
2021/07/26 05:40:31;;;;;;;15.63;14.83;;;20.90;99.90;;;;;;5080736;28;20481;-67
2021/07/26 05:42:58;;;;;;;17.27;16.13;;;21.00;99.90;;;;;;5080602;28;20903;-67
2021/07/26 05:45:25;;;;;;;15.37;14.77;;;21.10;99.90;;;;;;5080598;28;20473;-67
2021/07/26 05:47:51;;;;;;;16.13;15.33;;;21.10;99.90;;;;;;5080890;28;21016;-67
2021/07/26 05:50:19;;;;;;;15.80;14.90;;;21.20;99.90;;;;;;5080619;28;20446;-68
2021/07/26 05:52:48;;;;;;;16.23;15.53;;;21.30;99.90;;;;;;5079477;28;20512;-68
2021/07/26 05:55:15;;;;;;;15.87;15.17;;;21.30;99.90;;;;;;5080346;28;20872;-67
2021/07/26 05:57:46;;;;;;;16.87;15.97;;;21.50;99.90;;;;;;5080620;28;20525;-67
2021/07/26 06:00:15;;;;;;;16.20;15.40;;;21.60;99.90;;;;;;5080438;28;20451;-67
2021/07/26 06:02:42;;;;;;;16.53;15.73;;;21.70;99.90;;;;;;5080240;28;20449;-67
2021/07/26 06:05:10;;;;;;;16.87;15.93;;;21.70;99.90;;;;;;5080358;28;20830;-67
2021/07/26 06:07:36;;;;;;;16.20;15.30;;;21.80;99.90;;;;;;5080538;28;20484;-67
2021/07/26 06:10:05;;;;;;;16.40;15.60;;;22.00;99.90;;;;;;5080304;28;20446;-67
2021/07/26 06:12:32;;;;;;;16.77;15.90;;;22.20;99.90;;;;;;5079912;28;20438;-67
2021/07/26 06:14:58;;;;;;;17.30;16.40;;;22.20;99.90;;;;;;5080025;28;20469;-67
2021/07/26 06:17:25;;;;;;;17.50;16.77;;;22.40;99.90;;;;;;5079982;28;20884;-67
2021/07/26 06:19:52;;;;;;;16.53;15.83;;;22.60;99.90;;;;;;5080085;28;20469;-67
2021/07/26 06:22:18;;;;;;;17.83;17.10;;;22.80;99.90;;;;;;5079626;28;20493;-67
2021/07/26 06:24:45;;;;;;;17.87;17.13;;;22.80;99.90;;;;;;5079885;28;20443;-67
2021/07/26 06:27:13;;;;;;;17.90;17.00;;;22.90;99.90;;;;;;5079976;28;20453;-67
2021/07/26 06:29:40;;;;;;;17.77;17.00;;;22.80;99.90;;;;;;5080068;28;20442;-67
2021/07/26 06:32:07;;;;;;;17.60;16.80;;;22.80;99.90;;;;;;5079659;28;20445;-67
2021/07/26 06:34:34;;;;;;;18.10;17.40;;;22.90;99.90;;;;;;5079736;28;20448;-67
2021/07/26 06:37:01;;;;;;;18.13;17.33;;;22.80;99.90;;;;;;5079580;28;20564;-67
2021/07/26 06:39:27;;;;;;;17.97;17.17;;;22.90;99.90;;;;;;5079641;28;20446;-67
2021/07/26 06:41:54;;;;;;;18.20;17.47;;;22.90;99.90;;;;;;5079647;28;20512;-67
2021/07/26 06:44:22;;;;;;;18.23;17.43;;;22.90;99.90;;;;;;5079744;28;20446;-67
2021/07/26 06:46:49;;;;;;;18.33;17.33;;;22.90;99.90;;;;;;5079383;28;20501;-67
2021/07/26 06:49:16;;;;;;;19.40;18.40;;;22.90;99.90;;;;;;5079587;28;20446;-67
2021/07/26 06:51:43;;;;;;;19.17;18.17;;;22.90;99.90;;;;;;5079185;28;20461;-67
2021/07/26 06:54:10;;;;;;;18.80;17.83;;;22.90;99.90;;;;;;5079399;28;20473;-67
2021/07/26 06:56:36;;;;;;;18.50;17.60;;;23.00;99.90;;;;;;5079353;28;20920;-67
2021/07/26 06:59:03;;;;;;;18.50;17.50;;;23.10;99.90;;;;;;5079390;28;20450;-67
2021/07/26 07:01:31;;;;;;;17.90;17.10;;;23.10;99.90;;;;;;5079195;28;20482;-67
2021/07/26 07:03:58;;;;;;;18.17;17.37;;;23.20;99.90;;;;;;5079382;28;20451;-67
2021/07/26 07:06:27;;;;;;;18.23;17.33;;;23.50;99.90;;;;;;5079228;28;20466;-67
2021/07/26 07:08:54;;;;;;;18.10;17.30;;;23.80;99.90;;;;;;5079597;28;20832;-68
2021/07/26 07:11:20;;;;;;;18.90;18.10;;;23.90;99.90;;;;;;5079178;28;20918;-67
2021/07/26 07:13:48;;;;;;;18.20;17.47;;;24.20;99.90;;;;;;5079347;28;20446;-68
2021/07/26 07:16:17;;;;;;;18.77;17.97;;;24.40;99.90;;;;;;5079110;28;20484;-67
2021/07/26 07:18:46;;;;;;;18.70;17.80;;;24.50;99.90;;;;;;5079234;28;20451;-67
2021/07/26 07:21:16;;;;;;;18.60;17.70;;;24.60;99.90;;;;;;5078818;28;20485;-67
2021/07/26 07:23:43;;;;;;;19.23;18.43;;;24.70;99.90;;;;;;5079298;28;20442;-67
2021/07/26 07:26:11;;;;;;;18.93;17.93;;;24.80;99.90;;;;;;5079301;28;20498;-67
2021/07/26 07:28:37;;;;;;;19.50;18.60;;;24.70;99.90;;;;;;5079561;28;20453;-67
2021/07/26 07:31:04;;;;;;;19.30;18.50;;;24.60;99.90;;;;;;5079027;28;20450;-67
2021/07/26 07:33:31;;;;;;;20.10;19.30;;;24.50;99.90;;;;;;5079337;28;20454;-67
2021/07/26 07:36:02;;;;;;;19.67;18.60;;;24.30;99.90;;;;;;5078951;28;20466;-67
2021/07/26 07:38:29;;;;;;;20.57;19.57;;;24.00;99.90;;;;;;5079347;28;20917;-67
2021/07/26 07:40:55;;;;;;;18.87;18.13;;;23.90;99.90;;;;;;5078910;28;20963;-67
2021/07/26 07:43:22;;;;;;;19.57;18.70;;;23.90;99.90;;;;;;5079005;28;20767;-67
2021/07/26 07:45:49;;;;;;;19.73;18.93;;;23.80;99.90;;;;;;5078819;28;20474;-67
2021/07/26 07:48:18;;;;;;;18.10;17.40;;;23.90;99.90;;;;;;5079053;28;20469;-67
2021/07/26 07:50:45;;;;;;;18.93;18.13;;;24.10;99.90;;;;;;5078968;28;20461;-67
2021/07/26 07:53:13;;;;;;;19.43;18.63;;;23.90;99.90;;;;;;5078960;28;20528;-67
2021/07/26 07:55:39;;;;;;;18.83;18.00;;;23.80;99.90;;;;;;5079102;28;20547;-67
2021/07/26 07:58:06;;;;;;;19.47;18.57;;;23.90;99.90;;;;;;5078737;28;20892;-67
2021/07/26 08:00:33;;;;;;;19.67;18.70;;;24.00;99.90;;;;;;5078963;28;20450;-67
2021/07/26 08:03:00;;;;;;;19.10;18.27;;;23.80;99.90;;;;;;5078508;28;20493;-67
2021/07/26 08:05:27;;;;;;;19.57;18.53;;;23.50;99.90;;;;;;5078852;28;20490;-67
2021/07/26 08:07:54;;;;;;;20.30;19.27;;;23.50;99.90;;;;;;5078878;28;20451;-67
2021/07/26 08:10:23;;;;;;;20.33;19.23;;;23.50;99.90;;;;;;5078783;28;20449;-67
2021/07/26 08:12:50;;;;;;;19.73;18.93;;;23.30;99.90;;;;;;5078660;28;20771;-67
2021/07/26 08:15:17;;;;;;;19.73;18.73;;;23.40;99.90;;;;;;5078868;28;20493;-67
2021/07/26 08:17:46;;;;;;;20.00;19.00;;;23.50;99.90;;;;;;5082625;28;20452;-67
2021/07/26 08:20:15;;;;;;;19.87;19.00;;;23.80;99.90;;;;;;5082499;28;20457;-67
2021/07/26 08:22:42;;;;;;;19.90;19.10;;;24.00;99.90;;;;;;5082353;28;20486;-67
2021/07/26 08:25:11;;;;;;;20.47;19.57;;;24.30;99.90;;;;;;5082245;28;20469;-67
2021/07/26 08:27:49;;;;;;;20.20;19.23;;;24.40;99.90;;;;;;5082413;28;20547;-67
2021/07/26 08:30:19;;;;;;;20.73;19.83;;;24.40;99.90;;;;;;5082281;28;20468;-67
2021/07/26 08:32:46;;;;;;;20.30;19.40;;;24.60;99.90;;;;;;5081854;28;20438;-67
2021/07/26 08:35:13;;;;;;;21.03;19.97;;;24.80;99.90;;;;;;5081926;28;20466;-67
2021/07/26 08:37:40;;;;;;;21.00;20.20;;;24.80;99.90;;;;;;5082046;28;20449;-67
2021/07/26 08:40:07;;;;;;;21.00;19.93;;;25.20;99.90;;;;;;5082022;28;20442;-67
2021/07/26 08:42:34;;;;;;;20.80;20.00;;;25.20;99.90;;;;;;5081861;28;20485;-67
2021/07/26 08:45:04;;;;;;;21.30;20.30;;;25.20;99.90;;;;;;5081845;28;20561;-67
2021/07/26 08:47:33;;;;;;;20.33;19.53;;;25.50;99.90;;;;;;5125399;22;20944;-64
2021/07/26 08:50:03;;;;;;;21.57;20.57;;;25.80;99.90;;;;;;5102220;28;20452;-64
2021/07/26 08:52:33;;;;;;;20.63;19.57;;;25.80;99.60;;;;;;5102215;28;20799;-64
2021/07/26 08:55:01;;;;;;;19.97;19.07;;;25.80;99.10;;;;;;5102218;28;20444;-65
2021/07/26 08:57:28;;;;;;;19.70;18.80;;;26.00;98.80;;;;;;5102035;28;20461;-65
2021/07/26 08:59:55;;;;;;;20.97;19.97;;;25.80;99.20;;;;;;5102218;28;20442;-65
2021/07/26 09:02:23;;;;;;;19.73;18.90;;;26.00;98.10;;;;;;5101736;28;20477;-65
2021/07/26 09:04:50;;;;;;;21.00;19.80;;;26.10;97.90;;;;;;5101982;28;21009;-65
2021/07/26 09:07:26;;;;;;;21.00;20.00;;;26.10;97.10;;;;;;5101729;28;20845;-65
2021/07/26 09:09:52;;;;;;;21.17;20.27;;;26.20;97.50;;;;;;5101885;28;20993;-65
2021/07/26 09:12:31;;;;;;;19.37;18.53;;;26.60;97.20;;;;;;5101769;28;20445;-65
2021/07/26 09:14:58;;;;;;;20.17;19.27;;;26.60;96.50;;;;;;5101752;28;20441;-65
2021/07/26 09:17:36;;;;;;;19.03;18.37;;;26.50;96.00;;;;;;5101534;28;20469;-65
2021/07/26 09:20:03;;;;;;;20.23;19.43;;;26.40;94.60;;;;;;5101758;28;20524;-65
2021/07/26 09:22:31;;;;;;;21.20;20.10;;;26.40;94.70;;;;;;5101199;28;20488;-65
2021/07/26 09:25:20;;;;;;;19.90;18.87;;;26.30;94.50;;;;;;5101643;28;20457;-65
2021/07/26 09:28:01;;;;;;;19.90;19.10;;;26.10;95.00;;;;;;5101390;28;21143;-65
2021/07/26 09:30:33;;;;;;;21.17;19.10;;;25.80;95.70;;;;;;5101555;28;20441;-64
2021/07/26 09:33:01;;;;;;;20.07;19.27;;;25.90;96.80;;;;;;5101284;28;20469;-65
2021/07/26 09:35:28;;;;;;;20.20;19.30;;;26.20;96.80;;;;;;5101396;27;20445;-65
2021/07/26 09:38:02;;;;;;;19.00;18.30;;;26.80;95.90;;;;;;5101365;28;20886;-65
2021/07/26 09:40:33;;;;;;;19.40;18.60;;;27.20;94.70;;;;;;5101083;28;20451;-65
2021/07/26 09:43:19;;;;;;;19.30;18.57;;;27.20;93.60;;;;;;5101052;28;20509;-65
2021/07/26 09:45:46;;;;;;;19.23;18.43;;;27.20;93.60;;;;;;5101089;28;20757;-65
2021/07/26 09:48:15;;;;;;;18.90;18.20;;;27.40;92.10;;;;;;5101131;28;20464;-65
2021/07/26 09:50:44;;;;;;;19.20;18.50;;;28.00;90.90;;;;;;5101424;28;20944;-65
2021/07/26 09:53:12;;;;;;;19.10;18.37;;;28.30;85.00;;;;;;5100903;28;20463;-65
2021/07/26 09:55:41;;;;;;;18.30;17.70;;;28.00;84.60;;;;;;5101014;28;20437;-65
2021/07/26 09:58:08;;;;;;;20.73;19.40;;;28.10;83.50;;;;;;5100973;28;20777;-65
2021/07/26 10:00:36;;;;;;;20.43;19.73;;;27.70;84.00;;;;;;5101255;28;20456;-65
2021/07/26 10:03:07;;;;;;;20.33;19.23;;;27.30;86.10;;;;;;5100808;28;20477;-65
2021/07/26 10:05:36;;;;;;;19.40;18.70;;;26.90;89.60;;;;;;5101202;28;20514;-65
2021/07/26 10:08:04;;;;;;;20.83;19.80;;;26.70;89.10;;;;;;5101172;28;20445;-65
2021/07/26 10:10:33;;;;;;;20.17;19.10;;;26.50;90.20;;;;;;5101613;28;21005;-65
2021/07/26 10:13:01;;;;;;;19.50;18.77;;;26.50;92.30;;;;;;5101082;28;20433;-65
2021/07/26 10:15:29;;;;;;;19.23;18.43;;;26.60;91.30;;;;;;5100982;28;20449;-65
2021/07/26 10:17:56;;;;;;;19.90;19.20;;;26.80;90.20;;;;;;5100998;28;20445;-65
2021/07/26 10:20:26;;;;;;;20.60;19.60;;;27.30;88.90;;;;;;5100892;28;20449;-65
2021/07/26 10:22:59;;;;;;;20.13;19.30;;;27.80;86.10;;;;;;5100619;28;20484;-67
2021/07/26 10:25:32;;;;;;;20.07;19.10;;;28.30;90.20;;;;;;5100877;28;20448;-68
2021/07/26 10:28:00;;;;;;;20.13;19.33;;;29.10;80.30;;;;;;5101054;28;20551;-68
2021/07/26 10:30:35;;;;;;;20.13;19.43;;;29.60;77.10;;;;;;5100899;28;20453;-68
2021/07/26 10:33:02;;;;;;;19.90;19.10;;;29.10;69.90;;;;;;5100993;28;20439;-66
2021/07/26 10:35:41;;;;;;;19.60;18.83;;;28.90;71.80;;;;;;5100578;28;20456;-66
2021/07/26 10:38:10;;;;;;;19.60;18.80;;;29.20;69.90;;;;;;5100273;28;20445;-66
2021/07/26 10:40:41;;;;;;;20.10;19.20;;;29.10;68.80;;;;;;5100777;28;20441;-66
2021/07/26 10:43:13;;;;;;;20.80;20.10;;;28.90;68.40;;;;;;5100399;28;20488;-66
2021/07/26 10:46:01;;;;;;;20.47;19.70;;;28.70;68.70;;;;;;5100457;28;20560;-66
2021/07/26 10:48:35;;;;;;;20.43;19.70;;;28.70;68.60;;;;;;5100565;28;20442;-66
2021/07/26 10:51:02;;;;;;;20.37;19.37;;;28.50;71.00;;;;;;5100295;28;20448;-66
2021/07/26 10:53:59;;;;;;;20.97;20.07;;;28.50;70.60;;;;;;5099784;28;20441;-66
2021/07/26 10:56:25;;;;;;;20.80;20.00;;;28.40;71.00;;;;;;5099746;28;20469;-67
2021/07/26 10:59:03;;;;;;;20.20;19.40;;;28.40;71.90;;;;;;5099760;28;20441;-66
2021/07/26 11:02:00;;;;;;;20.30;19.50;;;28.50;69.60;;;;;;5099873;28;20797;-66
2021/07/26 11:04:35;;;;;;;21.33;20.53;;;28.00;72.40;;;;;;5099760;28;20833;-66
2021/07/26 11:07:12;;;;;;;19.73;19.00;;;27.80;73.20;;;;;;5099871;28;20462;-66
2021/07/26 11:09:41;;;;;;;20.40;19.70;;;27.60;72.30;;;;;;5099721;28;20445;-66
2021/07/26 11:12:08;;;;;;;21.00;20.10;;;27.90;73.20;;;;;;5099646;28;21006;-66
2021/07/26 11:14:35;;;;;;;19.73;19.00;;;28.40;71.50;;;;;;5099625;28;20438;-66
2021/07/26 11:17:04;;;;;;;20.47;19.60;;;28.70;69.20;;;;;;5099689;28;20461;-67
2021/07/26 11:19:31;;;;;;;20.33;19.27;;;29.20;69.30;;;;;;5099716;28;20529;-66
2021/07/26 11:21:58;;;;;;;19.80;19.00;;;29.60;66.90;;;;;;5099531;28;20441;-66
2021/07/26 11:24:45;;;;;;;19.03;18.43;;;29.80;65.30;;;;;;5099832;28;20452;-66
2021/07/26 11:27:13;;;;;;;20.90;20.10;;;30.20;61.60;;;;;;5099463;28;20472;-66
2021/07/26 11:29:42;;;;;;;20.47;19.77;;;30.00;62.80;;;;;;5099689;28;20444;-66
2021/07/26 11:32:09;;;;;;;20.53;19.83;;;31.20;61.50;;;;;;5099174;28;21022;-66
2021/07/26 11:34:36;;;;;;;21.20;20.40;;;31.20;59.50;;;;;;5099606;28;20837;-66
2021/07/26 11:37:13;;;;;;;20.60;19.80;;;31.90;58.60;;;;;;5099449;28;20495;-66
2021/07/26 11:39:48;;;;;;;20.90;19.90;;;32.40;57.40;;;;;;5099653;28;20444;-66
2021/07/26 11:42:18;;;;;;;21.93;20.93;;;33.00;55.50;;;;;;5099014;28;20476;-66
2021/07/26 11:44:46;;;;;;;21.50;20.70;;;33.20;53.90;;;;;;5099485;28;20964;-66
2021/07/26 11:47:14;;;;;;;21.30;20.50;;;32.60;52.70;;;;;;5099175;28;20483;-66
2021/07/26 11:49:46;;;;;;;21.67;20.87;;;32.40;53.30;;;;;;5099507;28;20495;-66
2021/07/26 11:52:13;;;;;;;21.10;20.10;;;32.10;52.70;;;;;;5102785;28;20869;-65
2021/07/26 11:54:39;;;;;;;21.07;20.23;;;32.00;53.30;;;;;;5103473;28;20452;-66
2021/07/26 11:57:09;;;;;;;21.60;20.57;;;32.20;53.20;;;;;;5103216;28;20998;-66
2021/07/26 11:59:37;;;;;;;21.07;20.17;;;32.10;52.50;;;;;;5103433;28;21122;-66
2021/07/26 12:02:07;;;;;;;21.00;20.20;;;32.50;51.90;;;;;;5102871;28;20939;-66
2021/07/26 12:04:34;;;;;;;20.43;19.73;;;33.70;50.10;;;;;;5103197;28;20881;-66
2021/07/26 12:07:02;;;;;;;21.50;20.70;;;33.60;48.60;;;;;;5102978;28;20547;-65
2021/07/26 12:09:30;;;;;;;21.80;20.90;;;34.20;48.00;;;;;;5103027;28;20451;-66
2021/07/26 12:12:09;;;;;;;20.65;19.95;;;35.50;46.30;;;;;;5102910;28;20440;-66
2021/07/26 12:14:37;;;;;;;20.80;20.10;;;35.30;45.90;;;;;;5103197;28;20209;-66
2021/07/26 12:17:06;;;;;;;21.77;20.87;;;34.10;45.30;;;;;;5102932;28;20226;-66
2021/07/26 12:19:34;;;;;;;21.47;20.47;;;33.30;46.10;;;;;;5103041;28;20206;-66
2021/07/26 12:22:19;;;;;;;21.07;20.27;;;32.70;47.60;;;;;;5102628;28;20448;-66
2021/07/26 12:24:54;;;;;;;20.77;19.97;;;32.40;48.60;;;;;;5102771;28;20444;-66
2021/07/26 12:27:33;;;;;;;21.03;20.13;;;31.80;48.90;;;;;;5102692;28;20781;-66
2021/07/26 12:30:03;;;;;;;21.03;20.23;;;31.10;50.40;;;;;;5102995;28;20460;-66
2021/07/26 12:32:30;;;;;;;21.60;20.73;;;30.60;51.10;;;;;;5102436;28;20449;-66
2021/07/26 12:35:28;;;;;;;19.70;19.00;;;30.30;52.10;;;;;;5102711;28;20525;-66
2021/07/26 12:38:02;;;;;;;20.73;20.03;;;30.50;52.20;;;;;;5102535;28;20921;-65
2021/07/26 12:40:29;;;;;;;20.47;19.67;;;31.20;52.50;;;;;;5102552;28;20450;-66